createdAt,value
2022-12-25T00:00:26.802Z,100511.40
2022-12-25T00:05:50.090Z,100522.20
2022-12-25T00:11:01.390Z,100514.80
2022-12-25T00:16:15.572Z,100520.80
2022-12-25T00:21:21.508Z,100529.00
2022-12-25T00:26:27.096Z,100536.20
2022-12-25T00:31:30.250Z,100533.60
2022-12-25T00:36:39.541Z,100533.20
2022-12-25T00:42:03.852Z,100540.00
2022-12-25T00:47:07.237Z,100537.80
2022-12-25T00:52:11.029Z,100544.60
2022-12-25T00:57:14.397Z,100551.60
2022-12-25T01:02:23.719Z,100565.20
2022-12-25T01:07:28.036Z,100583.60
2022-12-25T01:12:34.329Z,100585.40
2022-12-25T01:17:37.468Z,100591.80
2022-12-25T01:22:41.203Z,100607.20
2022-12-25T01:27:44.346Z,100601.60
2022-12-25T01:32:47.623Z,100593.80
2022-12-25T01:37:52.350Z,100600.80
2022-12-25T01:42:55.558Z,100604.80
2022-12-25T01:48:00.749Z,100600.80
2022-12-25T01:53:05.055Z,100600.40
2022-12-25T01:58:08.574Z,100597.80
2022-12-25T02:03:12.091Z,100593.00
2022-12-25T02:08:18.728Z,100587.00
2022-12-25T02:13:22.695Z,100586.80
2022-12-25T02:18:41.373Z,100602.20
2022-12-25T02:24:15.206Z,100606.20
2022-12-25T02:29:52.707Z,100616.40
2022-12-25T02:35:25.743Z,100622.60
2022-12-25T02:40:45.227Z,100628.20
2022-12-25T02:46:25.395Z,100611.80
2022-12-25T02:51:55.008Z,100613.00
2022-12-25T02:57:20.654Z,100616.60
2022-12-25T03:02:43.444Z,100625.80
2022-12-25T03:07:47.753Z,100624.20
2022-12-25T03:13:01.751Z,100625.20
2022-12-25T03:18:12.289Z,100625.60
2022-12-25T03:23:41.709Z,100627.20
2022-12-25T03:28:44.919Z,100625.00
2022-12-25T03:34:32.680Z,100627.00
2022-12-25T03:40:40.296Z,100632.20
2022-12-25T03:46:11.096Z,100622.40
2022-12-25T03:51:38.217Z,100627.40
2022-12-25T03:57:02.992Z,100624.00
2022-12-25T04:02:24.941Z,100636.40
2022-12-25T04:20:31.349Z,100636.20
2022-12-25T04:26:12.955Z,100632.60
2022-12-25T04:31:34.930Z,100646.00
2022-12-25T04:36:38.121Z,100655.40
2022-12-25T04:41:41.323Z,100657.20
2022-12-25T04:46:44.607Z,100647.00
2022-12-25T04:51:47.871Z,100642.80
2022-12-25T04:56:51.075Z,100646.40
2022-12-25T05:01:54.237Z,100649.40
2022-12-25T05:06:57.507Z,100644.80
2022-12-25T05:12:00.572Z,100649.80
2022-12-25T05:17:03.902Z,100655.20
2022-12-25T05:22:07.000Z,100654.40
2022-12-25T05:27:10.113Z,100663.80
2022-12-25T05:32:13.281Z,100662.60
2022-12-25T05:37:16.314Z,100672.00
2022-12-25T05:42:19.425Z,100677.60
2022-12-25T05:47:22.624Z,100680.80
2022-12-25T05:52:25.672Z,100683.00
2022-12-25T05:57:30.316Z,100686.80
2022-12-25T06:02:36.507Z,100689.60
2022-12-25T06:07:39.762Z,100686.60
2022-12-25T06:12:43.073Z,100696.80
2022-12-25T06:17:46.195Z,100696.40
2022-12-25T06:22:49.335Z,100702.00
2022-12-25T06:27:52.600Z,100710.00
2022-12-25T06:32:55.811Z,100718.20
2022-12-25T06:37:58.841Z,100730.00
2022-12-25T06:43:02.020Z,100734.00
2022-12-25T06:48:05.945Z,100745.20
2022-12-25T06:53:11.571Z,100750.60
2022-12-25T06:58:14.607Z,100764.00
2022-12-25T07:03:21.604Z,100792.20
2022-12-25T07:08:24.710Z,100798.40
2022-12-25T07:13:27.716Z,100797.00
2022-12-25T07:18:32.312Z,100801.20
2022-12-25T07:23:36.168Z,100807.60
2022-12-25T07:28:39.843Z,100819.80
2022-12-25T07:33:43.624Z,100819.40
2022-12-25T07:38:51.048Z,100831.40
2022-12-25T07:43:55.063Z,100827.80
2022-12-25T07:48:58.940Z,100837.60
2022-12-25T07:54:05.293Z,100848.40
2022-12-25T07:59:08.601Z,100852.80
2022-12-25T08:04:14.318Z,100855.00
2022-12-25T08:09:17.553Z,100855.60
2022-12-25T08:14:20.765Z,100866.00
2022-12-25T08:19:24.086Z,100874.80
2022-12-25T08:24:27.999Z,100878.80
2022-12-25T08:29:31.323Z,100886.40
2022-12-25T08:34:34.546Z,100878.60
2022-12-25T08:39:37.645Z,100884.80
2022-12-25T08:44:40.842Z,100887.60
2022-12-25T08:49:44.049Z,100891.60
2022-12-25T08:54:47.874Z,100900.60
2022-12-25T08:59:50.974Z,100903.00
2022-12-25T09:04:54.183Z,100890.60
2022-12-25T09:09:57.600Z,100890.20
2022-12-25T09:15:00.711Z,100890.20
2022-12-25T09:20:06.027Z,100897.60
2022-12-25T09:25:09.940Z,100897.00
2022-12-25T09:30:13.397Z,100904.20
2022-12-25T09:35:18.647Z,100908.80
2022-12-25T09:40:31.243Z,100899.20
2022-12-25T09:45:38.859Z,100898.80
2022-12-25T09:50:54.417Z,100898.80
2022-12-25T09:56:17.424Z,100903.80
2022-12-25T10:01:32.491Z,100911.20
2022-12-25T10:06:59.826Z,100904.60
2022-12-25T10:12:32.432Z,100917.00
2022-12-25T10:17:51.027Z,100917.20
2022-12-25T10:22:58.708Z,100903.60
2022-12-25T10:28:11.234Z,100910.40
2022-12-25T10:33:17.283Z,100919.60
2022-12-25T10:38:21.244Z,100919.00
2022-12-25T10:43:37.311Z,100910.00
2022-12-25T10:48:57.712Z,100899.40
2022-12-25T10:54:30.304Z,100894.80
2022-12-25T10:59:56.305Z,100890.80
2022-12-25T11:05:21.232Z,100898.20
2022-12-25T11:10:44.586Z,100894.60
2022-12-25T11:15:50.387Z,100892.20
2022-12-25T11:21:17.140Z,100894.80
2022-12-25T11:26:20.767Z,100900.40
2022-12-25T11:31:40.803Z,100907.40
2022-12-25T11:36:49.399Z,100909.20
2022-12-25T11:42:11.641Z,100913.40
2022-12-25T11:47:28.883Z,100914.60
2022-12-25T11:52:38.850Z,100924.60
2022-12-25T11:57:47.556Z,100929.00
2022-12-25T12:03:06.902Z,100935.00
2022-12-25T12:08:11.697Z,100932.60
2022-12-25T12:13:28.508Z,100934.60
2022-12-25T12:18:34.617Z,100931.80
2022-12-25T12:24:07.029Z,100933.20
2022-12-25T12:29:31.014Z,100930.40
2022-12-25T12:34:51.387Z,100917.60
2022-12-25T12:39:57.350Z,100906.20
2022-12-25T12:45:38.585Z,100910.40
2022-12-25T12:50:45.564Z,100904.80
2022-12-25T12:55:52.091Z,100919.80
2022-12-25T13:01:17.778Z,100906.80
2022-12-25T13:06:42.425Z,100916.60
2022-12-25T13:11:49.086Z,100919.00
2022-12-25T13:16:56.076Z,100925.80
2022-12-25T13:22:08.296Z,100924.40
2022-12-25T13:27:29.090Z,100928.20
2022-12-25T13:32:36.497Z,100928.20
2022-12-25T13:37:43.092Z,100920.00
2022-12-25T13:42:50.749Z,100926.40
2022-12-25T13:47:58.542Z,100924.80
2022-12-25T13:53:18.839Z,100920.40
2022-12-25T13:58:36.216Z,100927.60
2022-12-25T14:03:45.457Z,100926.60
2022-12-25T14:08:57.776Z,100931.40
2022-12-25T14:14:31.902Z,100920.80
2022-12-25T14:19:38.656Z,100920.60
2022-12-25T14:24:45.449Z,100918.20
2022-12-25T14:29:56.805Z,100925.20
2022-12-25T14:35:04.964Z,100931.20
2022-12-25T14:40:23.106Z,100947.80
2022-12-25T14:45:32.704Z,100962.20
2022-12-25T14:50:46.024Z,100964.80
2022-12-25T14:55:54.690Z,100969.00
2022-12-25T15:01:07.209Z,100977.20
2022-12-25T15:06:25.041Z,100971.40
2022-12-25T15:11:29.820Z,100969.00
2022-12-25T15:16:42.794Z,100961.20
2022-12-25T15:21:46.315Z,100956.00
2022-12-25T15:26:49.730Z,100958.60
2022-12-25T15:31:53.032Z,100960.80
2022-12-25T15:36:56.856Z,100968.20
2022-12-25T15:42:12.785Z,100958.60
2022-12-25T15:47:20.295Z,100943.40
2022-12-25T15:52:23.509Z,100926.40
2022-12-25T15:57:27.002Z,100915.00
2022-12-25T16:02:30.378Z,100914.00
2022-12-25T16:07:33.938Z,100908.00
2022-12-25T16:12:39.214Z,100924.80
2022-12-25T16:17:43.028Z,100958.00
2022-12-25T16:22:46.215Z,100956.80
2022-12-25T16:27:49.438Z,100943.80
2022-12-25T16:32:52.753Z,100955.20
2022-12-25T16:37:55.846Z,100955.60
2022-12-25T16:42:59.209Z,100951.00
2022-12-25T16:48:02.359Z,100950.80
2022-12-25T16:53:05.903Z,100944.80
2022-12-25T16:58:09.083Z,100951.40
2022-12-25T17:03:12.503Z,100939.40
2022-12-25T17:08:16.223Z,100931.60
2022-12-25T17:13:19.633Z,100935.40
2022-12-25T17:18:22.977Z,100947.40
2022-12-25T17:23:26.045Z,100927.40
2022-12-25T17:28:29.386Z,100925.60
2022-12-25T17:33:36.270Z,100925.20
2022-12-25T17:38:40.278Z,100930.00
2022-12-25T17:43:45.944Z,100924.80
2022-12-25T17:48:50.518Z,100921.40
2022-12-25T17:53:58.378Z,100920.40
2022-12-25T17:59:06.886Z,100921.00
2022-12-25T18:04:10.611Z,100925.60
2022-12-25T18:09:14.380Z,100906.60
2022-12-25T18:14:18.719Z,100904.40
2022-12-25T18:19:21.890Z,100907.60
2022-12-25T18:24:25.153Z,100907.60
2022-12-25T18:29:28.351Z,100899.00
2022-12-25T18:34:32.650Z,100881.60
2022-12-25T18:39:36.681Z,100880.00
2022-12-25T18:44:40.736Z,100886.40
2022-12-25T18:49:43.955Z,100886.20
2022-12-25T18:54:47.633Z,100891.20
2022-12-25T18:59:50.887Z,100889.20
2022-12-25T19:04:56.206Z,100883.40
2022-12-25T19:09:59.363Z,100879.00
2022-12-25T19:15:03.385Z,100867.60
2022-12-25T19:20:07.727Z,100862.80
2022-12-25T19:25:11.004Z,100855.00
2022-12-25T19:30:14.438Z,100844.60
2022-12-25T19:35:18.102Z,100833.80
2022-12-25T19:40:22.794Z,100832.20
2022-12-25T19:45:25.961Z,100829.20
2022-12-25T19:50:32.693Z,100821.80
2022-12-25T19:55:35.931Z,100813.40
2022-12-25T20:00:40.558Z,100815.00
2022-12-25T20:05:51.168Z,100810.40
2022-12-25T20:10:54.344Z,100822.60
2022-12-25T20:16:01.962Z,100824.00
2022-12-25T20:21:11.022Z,100824.80
2022-12-25T20:26:17.471Z,100826.40
2022-12-25T20:31:29.797Z,100815.80
2022-12-25T20:36:37.273Z,100815.40
2022-12-25T20:41:41.533Z,100828.20
2022-12-25T20:46:44.737Z,100833.60
2022-12-25T20:51:47.959Z,100820.20
2022-12-25T20:56:51.266Z,100806.00
2022-12-25T21:01:55.901Z,100803.60
2022-12-25T21:07:00.557Z,100803.00
2022-12-25T21:12:04.058Z,100791.80
2022-12-25T21:17:07.431Z,100774.80
2022-12-25T21:22:10.680Z,100777.40
2022-12-25T21:27:13.815Z,100764.00
2022-12-25T21:32:35.631Z,100764.60
2022-12-25T21:37:38.951Z,100745.00
2022-12-25T21:42:42.156Z,100739.40
2022-12-25T21:47:59.841Z,100723.40
2022-12-25T21:53:06.848Z,100737.00
2022-12-25T21:58:10.015Z,100726.00
2022-12-25T22:03:13.266Z,100716.60
2022-12-25T22:08:16.520Z,100709.20
2022-12-25T22:13:38.540Z,100707.60
2022-12-25T22:19:00.686Z,100705.20
2022-12-25T22:24:07.421Z,100681.80
2022-12-25T22:29:10.651Z,100672.80
2022-12-25T22:34:16.581Z,100654.40
2022-12-25T22:39:19.672Z,100644.00
2022-12-25T22:44:25.358Z,100629.00
2022-12-25T22:49:28.482Z,100625.40
2022-12-25T22:54:32.316Z,100610.40
2022-12-25T22:59:35.418Z,100603.00
2022-12-25T23:04:38.723Z,100584.80
2022-12-25T23:09:43.631Z,100592.00
2022-12-25T23:14:47.192Z,100595.20
2022-12-25T23:20:09.138Z,100578.80
2022-12-25T23:25:35.071Z,100560.80
2022-12-25T23:30:38.328Z,100553.40
2022-12-25T23:35:41.612Z,100538.80
2022-12-25T23:40:44.726Z,100554.00
2022-12-25T23:45:48.022Z,100576.00
2022-12-25T23:50:51.328Z,100570.00
2022-12-25T23:55:55.960Z,100559.80
